Time;durP1;ratioP1;P1;durP2;ratioP2;P2;SDS_P1;SDS_P2;PMS_P1;PMS_P2;Temp;Humidity;BMP_temperature;BMP_pressure;BME280_temperature;BME280_humidity;BME280_pressure;Samples;Min_cycle;Max_cycle;Signal;HPM_P1;HPM_P2
2022/01/09 00:00:41;;;;;;;;;;;3.70;61.20;;;;;;5074666;28;19916;-72
2022/01/09 00:03:07;;;;;;;;;;;3.70;61.20;;;;;;5074342;28;19931;-72
2022/01/09 00:05:33;;;;;;;;;;;3.80;61.30;;;;;;5074404;28;19904;-72
2022/01/09 00:07:59;;;;;;;;;;;3.80;61.30;;;;;;5074007;28;20331;-73
2022/01/09 00:10:26;;;;;;;;;;;3.90;61.30;;;;;;5074057;28;19960;-72
2022/01/09 00:12:52;;;;;;;;;;;3.90;61.30;;;;;;5074245;28;19905;-72
2022/01/09 00:15:18;;;;;;;;;;;4.00;61.30;;;;;;5074203;28;20225;-72
2022/01/09 00:17:44;;;;;;;;;;;4.10;61.30;;;;;;5074085;28;19923;-72
2022/01/09 00:20:13;;;;;;;;;;;4.10;61.20;;;;;;5074079;28;20014;-72
2022/01/09 00:22:48;;;;;;;;;;;4.20;61.20;;;;;;5074114;28;19912;-72
2022/01/09 00:25:14;;;;;;;;;;;4.30;61.10;;;;;;5074174;28;19995;-72
2022/01/09 00:27:40;;;;;;;;;;;4.30;61.10;;;;;;5073851;28;19987;-72
2022/01/09 00:30:07;;;;;;;;;;;4.30;61.00;;;;;;5073994;28;19970;-72
2022/01/09 00:32:32;;;;;;;;;;;4.40;61.00;;;;;;5073790;28;19905;-72
2022/01/09 00:34:58;;;;;;;;;;;4.50;61.00;;;;;;5073966;28;19904;-71
2022/01/09 00:37:24;;;;;;;;;;;4.60;61.10;;;;;;5055841;28;19905;-72
2022/01/09 00:39:49;;;;;;;;;;;4.60;61.00;;;;;;5089391;28;19905;-72
2022/01/09 00:42:15;;;;;;;;;;;4.70;61.00;;;;;;5073334;28;19931;-72
2022/01/09 00:44:41;;;;;;;;;;;4.70;61.00;;;;;;5073505;28;20344;-72
2022/01/09 00:47:06;;;;;;;;;;;4.80;60.90;;;;;;5055430;28;20007;-72
2022/01/09 00:49:32;;;;;;;;;;;4.80;60.70;;;;;;5073758;28;19958;-72
2022/01/09 00:51:57;;;;;;;;;;;4.90;60.70;;;;;;5073763;28;20352;-71
2022/01/09 00:54:23;;;;;;;;;;;4.90;60.60;;;;;;5073993;28;19943;-72
2022/01/09 00:56:49;;;;;;;;;;;5.00;60.70;;;;;;5073703;28;19905;-73
2022/01/09 00:59:14;;;;;;;;;;;5.00;60.60;;;;;;5055396;28;19904;-72
2022/01/09 01:01:40;;;;;;;;;;;5.00;60.50;;;;;;5073546;28;20007;-72
2022/01/09 01:04:05;;;;;;;;;;;5.10;60.50;;;;;;5073636;28;20268;-72
2022/01/09 01:06:31;;;;;;;;;;;5.10;60.20;;;;;;5073899;28;19904;-72
2022/01/09 01:08:57;;;;;;;;;;;5.10;60.00;;;;;;5055552;28;19908;-72
2022/01/09 01:11:22;;;;;;;;;;;5.10;59.80;;;;;;5073765;28;19905;-72
2022/01/09 01:13:48;;;;;;;;;;;5.10;59.80;;;;;;5073137;28;19940;-72
2022/01/09 01:16:14;;;;;;;;;;;5.10;59.70;;;;;;5073338;28;19905;-72
2022/01/09 01:18:43;;;;;;;;;;;5.00;59.70;;;;;;5088750;28;19920;-72
2022/01/09 01:21:09;;;;;;;;;;;5.00;59.70;;;;;;5073274;28;19970;-72
2022/01/09 01:23:34;;;;;;;;;;;5.00;59.70;;;;;;5073469;28;19995;-73
2022/01/09 01:26:02;;;;;;;;;;;5.00;59.70;;;;;;5073059;28;19995;-73
2022/01/09 01:28:28;;;;;;;;;;;5.00;59.80;;;;;;5088895;28;19904;-72
2022/01/09 01:30:54;;;;;;;;;;;5.00;59.80;;;;;;5073391;28;20003;-72
2022/01/09 01:33:20;;;;;;;;;;;5.00;59.80;;;;;;5073062;28;20391;-71
2022/01/09 01:35:45;;;;;;;;;;;5.10;59.80;;;;;;5088505;28;19908;-73
2022/01/09 01:38:11;;;;;;;;;;;5.10;59.80;;;;;;5073618;28;19959;-72
2022/01/09 01:40:37;;;;;;;;;;;5.10;59.70;;;;;;5073131;28;19967;-73
2022/01/09 01:43:02;;;;;;;;;;;5.10;59.70;;;;;;5058403;28;19909;-72
2022/01/09 01:45:28;;;;;;;;;;;5.10;59.60;;;;;;5077048;28;20254;-72
2022/01/09 01:47:54;;;;;;;;;;;5.10;59.50;;;;;;5076731;28;19905;-72
2022/01/09 01:50:20;;;;;;;;;;;5.10;59.40;;;;;;5059113;28;19904;-72
2022/01/09 01:52:49;;;;;;;;;;;5.10;59.40;;;;;;5076936;28;19947;-73
2022/01/09 01:55:15;;;;;;;;;;;5.20;59.30;;;;;;5058897;28;19905;-72
2022/01/09 01:57:41;;;;;;;;;;;5.20;59.20;;;;;;5092480;28;19911;-72
2022/01/09 02:00:08;;;;;;;;;;;5.20;59.70;;;;;;5058828;28;19930;-72
2022/01/09 02:02:34;;;;;;;;;;;5.20;59.10;;;;;;5076893;28;19918;-73
2022/01/09 02:05:00;;;;;;;;;;;5.30;59.00;;;;;;5076601;28;19904;-72
2022/01/09 02:07:27;;;;;;;;;;;5.30;58.90;;;;;;5076901;28;20351;-72
2022/01/09 02:09:53;;;;;;;;;;;5.30;58.70;;;;;;5058470;28;20128;-72
2022/01/09 02:12:19;;;;;;;;;;;5.30;58.60;;;;;;5076030;28;19939;-73
2022/01/09 02:14:47;;;;;;;;;;;5.30;58.60;;;;;;5058154;28;19927;-72
2022/01/09 02:17:19;;;;;;;;;;;5.30;58.60;;;;;;5061333;28;20440;-73
2022/01/09 02:19:55;;;;;;;;;;;5.20;58.60;;;;;;5076247;28;20102;-72
2022/01/09 02:22:21;;;;;;;;;;;5.20;58.50;;;;;;5058093;28;20015;-72
2022/01/09 02:24:46;;;;;;;;;;;5.20;58.40;;;;;;5076129;28;20241;-73
2022/01/09 02:27:12;;;;;;;;;;;5.20;58.30;;;;;;5076171;28;19911;-72
2022/01/09 02:29:38;;;;;;;;;;;5.30;58.20;;;;;;5076483;28;19904;-73
2022/01/09 02:32:04;;;;;;;;;;;5.20;58.00;;;;;;5076045;28;20229;-72
2022/01/09 02:34:32;;;;;;;;;;;5.20;57.90;;;;;;5075889;28;20003;-72
2022/01/09 02:36:57;;;;;;;;;;;5.20;57.80;;;;;;5075675;28;19904;-72
2022/01/09 02:39:23;;;;;;;;;;;5.20;57.70;;;;;;5061232;28;19911;-72
2022/01/09 02:41:48;;;;;;;;;;;5.20;57.70;;;;;;5055774;28;20259;-73
2022/01/09 02:44:14;;;;;;;;;;;5.20;57.60;;;;;;5055922;28;19909;-73
2022/01/09 02:49:13;;;;;;;;;;;5.20;57.40;;;;;;5055814;28;20353;-72
2022/01/09 02:51:45;;;;;;;;;;;5.10;57.40;;;;;;5071230;28;19955;-72
2022/01/09 02:56:55;;;;;;;;;;;5.10;57.30;;;;;;5055394;28;19912;-72
2022/01/09 02:59:20;;;;;;;;;;;5.10;57.20;;;;;;5055448;28;19904;-72
2022/01/09 03:01:46;;;;;;;;;;;5.00;57.70;;;;;;5055187;28;19916;-73
2022/01/09 03:04:11;;;;;;;;;;;5.00;57.20;;;;;;5055330;28;19913;-72
2022/01/09 03:06:37;;;;;;;;;;;5.00;57.20;;;;;;5055432;28;20257;-73
2022/01/09 03:09:05;;;;;;;;;;;5.00;57.20;;;;;;5055253;28;19905;-72
2022/01/09 03:11:32;;;;;;;;;;;4.90;57.10;;;;;;5054892;28;20349;-72
2022/01/09 03:13:57;;;;;;;;;;;4.90;57.10;;;;;;5055295;28;20364;-72
2022/01/09 03:16:23;;;;;;;;;;;4.90;57.10;;;;;;5055388;28;20008;-72
2022/01/09 03:18:49;;;;;;;;;;;4.90;57.10;;;;;;5074617;28;19924;-72
2022/01/09 03:21:14;;;;;;;;;;;4.90;57.00;;;;;;5074993;28;19908;-73
2022/01/09 03:23:40;;;;;;;;;;;4.90;56.90;;;;;;5074974;28;19915;-72
2022/01/09 03:26:08;;;;;;;;;;;4.90;56.90;;;;;;5074889;28;20273;-72
2022/01/09 03:28:35;;;;;;;;;;;4.90;56.80;;;;;;5057059;28;20428;-72
2022/01/09 03:31:00;;;;;;;;;;;4.90;56.80;;;;;;5074881;28;19943;-73
2022/01/09 03:33:26;;;;;;;;;;;4.90;56.80;;;;;;5074825;28;19916;-72
2022/01/09 03:35:51;;;;;;;;;;;5.00;56.80;;;;;;5074909;28;19939;-72
2022/01/09 03:38:17;;;;;;;;;;;5.00;56.80;;;;;;5074909;28;20324;-72
2022/01/09 03:40:43;;;;;;;;;;;5.00;56.80;;;;;;5056919;28;19977;-72
2022/01/09 03:43:08;;;;;;;;;;;5.00;56.80;;;;;;5090865;28;19909;-72
2022/01/09 03:45:34;;;;;;;;;;;5.10;56.70;;;;;;5074621;28;19940;-73
2022/01/09 03:47:59;;;;;;;;;;;5.10;56.70;;;;;;5074663;28;20391;-72
2022/01/09 03:50:25;;;;;;;;;;;5.20;56.60;;;;;;5074911;28;19988;-72
2022/01/09 03:52:51;;;;;;;;;;;5.20;56.50;;;;;;5074063;28;20272;-72
2022/01/09 03:55:22;;;;;;;;;;;5.30;56.50;;;;;;5090037;28;19908;-72
2022/01/09 03:57:48;;;;;;;;;;;5.30;56.60;;;;;;5074517;28;20251;-72
2022/01/09 04:00:16;;;;;;;;;;;5.40;56.70;;;;;;5074024;28;19904;-72
2022/01/09 04:02:42;;;;;;;;;;;5.40;56.80;;;;;;5056310;28;20264;-72
2022/01/09 04:05:08;;;;;;;;;;;5.50;56.80;;;;;;5073919;28;19904;-72
2022/01/09 04:07:34;;;;;;;;;;;5.60;56.90;;;;;;5056490;28;19905;-73
2022/01/09 04:09:59;;;;;;;;;;;5.60;56.80;;;;;;5073873;28;19905;-72
2022/01/09 04:12:36;;;;;;;;;;;5.60;56.80;;;;;;5074108;28;19936;-73
2022/01/09 04:15:04;;;;;;;;;;;5.70;56.70;;;;;;5074453;28;19904;-73
2022/01/09 04:17:43;;;;;;;;;;;5.70;56.70;;;;;;5073520;28;19916;-72
2022/01/09 04:20:09;;;;;;;;;;;5.70;56.70;;;;;;5073948;28;19991;-72
2022/01/09 04:22:35;;;;;;;;;;;5.70;56.50;;;;;;5073500;28;20008;-73
2022/01/09 04:25:01;;;;;;;;;;;5.80;56.50;;;;;;5073516;28;19905;-72
2022/01/09 04:27:26;;;;;;;;;;;5.80;56.50;;;;;;5073618;28;19916;-72
2022/01/09 04:29:52;;;;;;;;;;;5.80;56.50;;;;;;5074173;28;20299;-72
2022/01/09 04:32:17;;;;;;;;;;;5.80;56.40;;;;;;5073501;28;19905;-72
2022/01/09 04:34:43;;;;;;;;;;;5.80;56.20;;;;;;5055818;28;19911;-72
2022/01/09 04:37:09;;;;;;;;;;;5.80;56.10;;;;;;5089463;28;20257;-72
2022/01/09 04:39:34;;;;;;;;;;;5.80;56.20;;;;;;5073723;28;19995;-73
2022/01/09 04:42:00;;;;;;;;;;;5.90;56.30;;;;;;5073354;28;19954;-73
2022/01/09 04:44:26;;;;;;;;;;;5.90;56.30;;;;;;5073955;28;20255;-73
2022/01/09 04:46:59;;;;;;;;;;;5.90;56.10;;;;;;5073640;28;19911;-72
2022/01/09 04:49:31;;;;;;;;;;;5.90;56.00;;;;;;5088928;28;19911;-72
2022/01/09 04:51:57;;;;;;;;;;;5.90;56.40;;;;;;5073359;28;19980;-72
2022/01/09 04:54:23;;;;;;;;;;;6.00;56.00;;;;;;5073587;28;19911;-72
2022/01/09 04:56:48;;;;;;;;;;;6.00;56.00;;;;;;5073242;28;19904;-72
2022/01/09 04:59:14;;;;;;;;;;;6.10;56.10;;;;;;5073257;28;19905;-72
2022/01/09 05:01:40;;;;;;;;;;;6.10;56.20;;;;;;5073253;28;19931;-72
2022/01/09 05:04:05;;;;;;;;;;;6.10;56.10;;;;;;5073243;28;19995;-72
2022/01/09 05:06:31;;;;;;;;;;;6.20;56.10;;;;;;5073465;28;19905;-72
2022/01/09 05:08:56;;;;;;;;;;;6.20;56.10;;;;;;5073198;28;20245;-72
2022/01/09 05:11:22;;;;;;;;;;;6.30;55.90;;;;;;5073145;28;19904;-72
2022/01/09 05:13:48;;;;;;;;;;;6.20;55.20;;;;;;5089006;28;19912;-72
2022/01/09 05:16:13;;;;;;;;;;;6.20;54.70;;;;;;5073842;28;20244;-72
2022/01/09 05:18:51;;;;;;;;;;;6.30;54.70;;;;;;5077126;28;19928;-72
2022/01/09 05:21:17;;;;;;;;;;;6.30;54.70;;;;;;5077463;28;19915;-72
2022/01/09 05:23:43;;;;;;;;;;;6.30;54.60;;;;;;5077389;28;19908;-72
2022/01/09 05:26:09;;;;;;;;;;;6.30;54.50;;;;;;5077308;28;19904;-72
2022/01/09 05:28:35;;;;;;;;;;;6.40;54.40;;;;;;5077350;28;19912;-73
2022/01/09 05:31:00;;;;;;;;;;;6.40;54.40;;;;;;5077326;28;19967;-73
2022/01/09 05:33:26;;;;;;;;;;;6.40;54.30;;;;;;5077160;28;19919;-72
2022/01/09 05:35:51;;;;;;;;;;;6.40;54.40;;;;;;5077287;28;20237;-73
2022/01/09 05:38:18;;;;;;;;;;;6.40;54.50;;;;;;5092776;28;19944;-72
2022/01/09 05:40:44;;;;;;;;;;;6.50;54.50;;;;;;5092661;28;19908;-72
2022/01/09 05:43:11;;;;;;;;;;;6.50;54.40;;;;;;5076770;28;19908;-72
2022/01/09 05:45:37;;;;;;;;;;;6.40;54.00;;;;;;5059050;28;19915;-72
2022/01/09 05:48:03;;;;;;;;;;;6.50;54.00;;;;;;5076981;28;19930;-73
2022/01/09 05:50:28;;;;;;;;;;;6.50;54.10;;;;;;5076983;28;20012;-73
2022/01/09 05:52:54;;;;;;;;;;;6.50;54.10;;;;;;5076568;28;19998;-73
2022/01/09 05:55:20;;;;;;;;;;;6.50;54.20;;;;;;5076792;28;19904;-72
2022/01/09 05:57:45;;;;;;;;;;;6.60;54.30;;;;;;5076529;28;20344;-72
2022/01/09 06:00:11;;;;;;;;;;;6.60;54.30;;;;;;5076775;28;19905;-73
2022/01/09 06:02:37;;;;;;;;;;;6.60;54.30;;;;;;5058585;28;20370;-72
2022/01/09 06:05:02;;;;;;;;;;;6.60;54.40;;;;;;5076646;28;20431;-72
2022/01/09 06:07:28;;;;;;;;;;;6.60;54.50;;;;;;5076635;28;19916;-72
2022/01/09 06:09:54;;;;;;;;;;;6.60;54.50;;;;;;5092111;28;19957;-72
2022/01/09 06:12:19;;;;;;;;;;;6.60;54.70;;;;;;5076540;28;19905;-72
2022/01/09 06:14:45;;;;;;;;;;;6.60;54.70;;;;;;5076467;28;19958;-72
2022/01/09 06:17:10;;;;;;;;;;;6.60;54.60;;;;;;5076242;28;19920;-72
2022/01/09 06:19:36;;;;;;;;;;;6.60;54.50;;;;;;5076645;28;19947;-72
2022/01/09 06:22:02;;;;;;;;;;;6.60;54.50;;;;;;5075945;28;20003;-72
2022/01/09 06:24:27;;;;;;;;;;;6.60;54.40;;;;;;5076313;28;19955;-72
2022/01/09 06:26:53;;;;;;;;;;;6.60;54.40;;;;;;5076198;28;19905;-72
2022/01/09 06:29:19;;;;;;;;;;;6.60;54.40;;;;;;5074564;28;19908;-72
2022/01/09 06:31:45;;;;;;;;;;;6.60;54.40;;;;;;5076134;28;20329;-72
2022/01/09 06:34:13;;;;;;;;;;;6.60;54.40;;;;;;5057718;28;19911;-73
2022/01/09 06:36:39;;;;;;;;;;;6.60;54.40;;;;;;5091665;28;19958;-72
2022/01/09 06:39:05;;;;;;;;;;;6.60;54.50;;;;;;5075709;28;20407;-72
2022/01/09 06:41:32;;;;;;;;;;;6.60;54.50;;;;;;5057865;28;20055;-72
2022/01/09 06:43:58;;;;;;;;;;;6.50;54.50;;;;;;5075851;28;19909;-72
2022/01/09 06:46:25;;;;;;;;;;;6.50;54.50;;;;;;5057909;28;19911;-72
2022/01/09 06:48:51;;;;;;;;;;;6.50;54.60;;;;;;5076050;28;19904;-72
2022/01/09 06:51:17;;;;;;;;;;;6.50;54.70;;;;;;5075772;28;19916;-72
2022/01/09 06:53:42;;;;;;;;;;;6.50;54.70;;;;;;5091329;28;19911;-72
2022/01/09 06:56:08;;;;;;;;;;;6.50;54.80;;;;;;5075416;28;19927;-72
2022/01/09 06:58:36;;;;;;;;;;;6.50;54.70;;;;;;5057618;28;19959;-73
2022/01/09 07:01:03;;;;;;;;;;;6.50;54.70;;;;;;5091066;28;19909;-73
2022/01/09 07:03:29;;;;;;;;;;;6.50;54.80;;;;;;5075498;28;19909;-72
2022/01/09 07:05:55;;;;;;;;;;;6.60;54.90;;;;;;5057525;28;20256;-72
2022/01/09 07:08:20;;;;;;;;;;;6.50;54.80;;;;;;5075201;28;20303;-72
2022/01/09 07:10:46;;;;;;;;;;;6.60;54.90;;;;;;5057467;28;19908;-73
2022/01/09 07:13:12;;;;;;;;;;;6.60;55.00;;;;;;5075327;28;19908;-72
2022/01/09 07:15:37;;;;;;;;;;;6.60;55.00;;;;;;5074989;28;19904;-72
2022/01/09 07:18:03;;;;;;;;;;;6.60;55.00;;;;;;5090449;28;19916;-73
2022/01/09 07:20:28;;;;;;;;;;;6.60;55.00;;;;;;5075129;28;20022;-72
2022/01/09 07:22:54;;;;;;;;;;;6.70;55.10;;;;;;5074836;28;19908;-72
2022/01/09 07:25:20;;;;;;;;;;;6.70;55.10;;;;;;5075153;28;20039;-72
2022/01/09 07:27:45;;;;;;;;;;;6.70;55.00;;;;;;5074769;28;19998;-73
2022/01/09 07:30:11;;;;;;;;;;;6.70;54.90;;;;;;5075329;28;19904;-72
2022/01/09 07:32:37;;;;;;;;;;;6.70;54.70;;;;;;5074864;28;19948;-72
2022/01/09 07:35:04;;;;;;;;;;;6.70;54.70;;;;;;5090510;28;19905;-73
2022/01/09 07:37:30;;;;;;;;;;;6.80;54.60;;;;;;5090425;28;19952;-72
2022/01/09 07:39:57;;;;;;;;;;;6.80;54.50;;;;;;5074167;28;19905;-72
2022/01/09 07:42:23;;;;;;;;;;;6.80;54.40;;;;;;5074566;28;19908;-72
2022/01/09 07:44:48;;;;;;;;;;;6.90;54.50;;;;;;5074695;28;20344;-73
2022/01/09 07:47:14;;;;;;;;;;;6.90;54.50;;;;;;5074622;28;19908;-72
2022/01/09 07:49:39;;;;;;;;;;;6.90;54.60;;;;;;5056652;28;20355;-73
2022/01/09 07:52:05;;;;;;;;;;;6.90;54.50;;;;;;5074404;28;20003;-72
2022/01/09 07:54:31;;;;;;;;;;;6.90;54.60;;;;;;5074511;28;20295;-72
2022/01/09 07:56:59;;;;;;;;;;;7.00;54.70;;;;;;5074418;28;19908;-72
2022/01/09 07:59:25;;;;;;;;;;;7.00;54.60;;;;;;5074171;28;20378;-72
2022/01/09 08:01:51;;;;;;;;;;;7.00;54.50;;;;;;5073973;28;19991;-73
2022/01/09 08:04:16;;;;;;;;;;;7.00;54.50;;;;;;5074316;28;19948;-73
2022/01/09 08:06:42;;;;;;;;;;;7.00;54.60;;;;;;5074633;28;19915;-72
2022/01/09 08:09:08;;;;;;;;;;;7.10;54.70;;;;;;5074217;28;20003;-72
2022/01/09 08:11:33;;;;;;;;;;;7.10;54.70;;;;;;5074216;28;20355;-73
2022/01/09 08:13:59;;;;;;;;;;;7.20;54.80;;;;;;5073846;28;19911;-73
2022/01/09 08:16:25;;;;;;;;;;;7.20;54.60;;;;;;5073795;28;19904;-72
2022/01/09 08:18:51;;;;;;;;;;;7.30;54.40;;;;;;5056100;28;19908;-72
2022/01/09 08:21:19;;;;;;;;;;;7.30;54.40;;;;;;5073907;28;20256;-72
2022/01/09 08:23:48;;;;;;;;;;;7.40;54.50;;;;;;5089539;28;19908;-72
2022/01/09 08:26:15;;;;;;;;;;;7.50;54.60;;;;;;5055857;28;19911;-72
2022/01/09 08:28:44;;;;;;;;;;;7.50;54.60;;;;;;5072523;28;19931;-72
2022/01/09 08:31:10;;;;;;;;;;;7.60;54.70;;;;;;5055621;28;19940;-72
2022/01/09 08:33:36;;;;;;;;;;;7.80;55.20;;;;;;5073538;28;20406;-72
2022/01/09 08:36:02;;;;;;;;;;;7.80;54.30;;;;;;5073770;28;19904;-72
2022/01/09 08:38:27;;;;;;;;;;;7.90;54.20;;;;;;5073700;28;19912;-73
2022/01/09 08:40:53;;;;;;;;;;;8.00;54.20;;;;;;5073331;28;19938;-73
2022/01/09 08:43:19;;;;;;;;;;;8.10;54.30;;;;;;5073641;28;19915;-72
2022/01/09 08:45:44;;;;;;;;;;;8.20;54.10;;;;;;5073458;28;19959;-72
2022/01/09 08:48:10;;;;;;;;;;;8.30;53.90;;;;;;5073632;28;19912;-72
2022/01/09 08:50:36;;;;;;;;;;;8.30;53.80;;;;;;5073523;28;19959;-72
2022/01/09 08:53:01;;;;;;;;;;;8.40;53.90;;;;;;5072830;28;19980;-73
2022/01/09 08:55:27;;;;;;;;;;;8.60;53.90;;;;;;5073708;28;20003;-72
2022/01/09 08:57:53;;;;;;;;;;;8.60;53.80;;;;;;5073499;28;19960;-72
2022/01/09 09:00:18;;;;;;;;;;;8.70;53.50;;;;;;5055011;28;19911;-72
2022/01/09 09:02:44;;;;;;;;;;;8.80;53.20;;;;;;5055742;28;19963;-72
2022/01/09 09:05:10;;;;;;;;;;;8.80;52.90;;;;;;5074076;28;20000;-72
2022/01/09 09:07:36;;;;;;;;;;;8.90;52.80;;;;;;5073429;28;19932;-73
2022/01/09 09:10:04;;;;;;;;;;;8.90;52.70;;;;;;5073458;28;20303;-72
2022/01/09 09:12:31;;;;;;;;;;;9.00;52.60;;;;;;5088978;28;20220;-72
2022/01/09 09:14:58;;;;;;;;;;;9.00;52.60;;;;;;5073596;28;20332;-72
2022/01/09 09:17:24;;;;;;;;;;;9.00;52.70;;;;;;5088753;28;19916;-72
2022/01/09 09:19:49;;;;;;;;;;;9.10;52.70;;;;;;5055335;28;20322;-73
2022/01/09 09:22:15;;;;;;;;;;;9.20;52.60;;;;;;5073216;28;19909;-72
2022/01/09 09:24:41;;;;;;;;;;;9.20;52.20;;;;;;5073299;28;19935;-72
2022/01/09 09:27:06;;;;;;;;;;;9.20;51.90;;;;;;5088811;28;19909;-72
2022/01/09 09:29:32;;;;;;;;;;;9.20;51.70;;;;;;5073084;28;19904;-72
2022/01/09 09:31:58;;;;;;;;;;;9.20;51.90;;;;;;5073164;28;19912;-73
2022/01/09 09:34:24;;;;;;;;;;;9.30;51.90;;;;;;5055052;28;19904;-72
2022/01/09 09:36:50;;;;;;;;;;;9.40;51.70;;;;;;5073116;28;19947;-72
2022/01/09 09:39:15;;;;;;;;;;;9.30;51.50;;;;;;5073031;28;20005;-72
2022/01/09 09:41:41;;;;;;;;;;;9.40;51.40;;;;;;5055133;28;19908;-73
2022/01/09 09:44:09;;;;;;;;;;;9.40;51.20;;;;;;5073167;28;19919;-75
2022/01/09 09:46:35;;;;;;;;;;;9.40;51.10;;;;;;5073382;28;19908;-72
2022/01/09 09:49:01;;;;;;;;;;;9.50;50.90;;;;;;5073088;28;19983;-72
2022/01/09 09:51:30;;;;;;;;;;;9.50;50.90;;;;;;5073003;28;20007;-72
2022/01/09 09:53:56;;;;;;;;;;;9.60;51.10;;;;;;5088577;28;19999;-73
2022/01/09 09:56:22;;;;;;;;;;;9.60;50.70;;;;;;5054994;28;19904;-72
2022/01/09 09:58:51;;;;;;;;;;;9.60;50.50;;;;;;5055044;28;20379;-73
2022/01/09 10:01:33;;;;;;;;;;;9.60;50.40;;;;;;5072923;28;19982;-72
2022/01/09 10:04:00;;;;;;;;;;;9.60;50.60;;;;;;5075375;28;19955;-73
2022/01/09 10:06:35;;;;;;;;;;;9.50;50.80;;;;;;5058379;28;19904;-73
2022/01/09 10:09:22;;;;;;;;;;;9.50;50.80;;;;;;5076601;28;19958;-72
2022/01/09 10:11:48;;;;;;;;;;;9.50;50.90;;;;;;5058375;28;19909;-73
2022/01/09 10:14:17;;;;;;;;;;;9.50;51.00;;;;;;5076423;28;20264;-72
2022/01/09 10:17:02;;;;;;;;;;;9.40;51.10;;;;;;5076083;28;20217;-72
2022/01/09 10:19:39;;;;;;;;;;;9.40;51.20;;;;;;5076498;28;19959;-72
2022/01/09 10:22:05;;;;;;;;;;;9.30;51.30;;;;;;5091915;28;19908;-72
2022/01/09 10:24:31;;;;;;;;;;;9.30;51.40;;;;;;5058257;28;19916;-72
2022/01/09 10:26:57;;;;;;;;;;;9.20;51.40;;;;;;5091298;28;19908;-72
2022/01/09 10:29:23;;;;;;;;;;;9.10;51.50;;;;;;5076131;28;19911;-73
2022/01/09 10:31:50;;;;;;;;;;;9.10;51.70;;;;;;5075820;28;20003;-72
2022/01/09 10:34:16;;;;;;;;;;;9.00;51.80;;;;;;5075745;28;20469;-72
2022/01/09 10:36:44;;;;;;;;;;;8.90;51.90;;;;;;5091587;28;19905;-72
2022/01/09 10:39:11;;;;;;;;;;;8.90;52.10;;;;;;5076325;28;19904;-72
2022/01/09 10:41:57;;;;;;;;;;;8.80;52.20;;;;;;5091448;28;20019;-72
2022/01/09 10:44:27;;;;;;;;;;;8.80;52.20;;;;;;5058003;28;20335;-72
2022/01/09 10:46:54;;;;;;;;;;;8.70;52.40;;;;;;5091515;28;20363;-72
2022/01/09 10:49:19;;;;;;;;;;;8.70;52.50;;;;;;5057762;28;19904;-72
2022/01/09 10:51:45;;;;;;;;;;;8.60;52.60;;;;;;5075973;28;19905;-72
2022/01/09 10:54:26;;;;;;;;;;;8.60;52.80;;;;;;5091170;28;20229;-72
2022/01/09 10:57:07;;;;;;;;;;;8.60;52.90;;;;;;5075473;28;20268;-72
2022/01/09 10:59:33;;;;;;;;;;;8.50;53.10;;;;;;5075396;28;19905;-72
2022/01/09 11:02:00;;;;;;;;;;;8.50;53.20;;;;;;5075632;28;19909;-72
2022/01/09 11:04:25;;;;;;;;;;;8.50;53.30;;;;;;5075480;28;19961;-72
2022/01/09 11:06:51;;;;;;;;;;;8.40;53.30;;;;;;5075266;28;20415;-72
2022/01/09 11:09:17;;;;;;;;;;;8.50;53.40;;;;;;5075111;28;19904;-72
2022/01/09 11:11:46;;;;;;;;;;;8.40;53.30;;;;;;5057360;28;19904;-72
2022/01/09 11:14:16;;;;;;;;;;;8.40;53.40;;;;;;5074265;28;19904;-71
2022/01/09 11:16:51;;;;;;;;;;;8.40;53.50;;;;;;5056920;28;19955;-72
2022/01/09 11:19:17;;;;;;;;;;;8.30;53.50;;;;;;5075523;28;19912;-72
2022/01/09 11:21:45;;;;;;;;;;;8.30;53.60;;;;;;5057080;28;20003;-72
2022/01/09 11:24:10;;;;;;;;;;;8.20;53.60;;;;;;5075150;28;19912;-72
2022/01/09 11:26:54;;;;;;;;;;;8.20;53.70;;;;;;5043457;28;19975;-71
2022/01/09 11:29:25;;;;;;;;;;;8.10;53.80;;;;;;5054995;28;19905;-71
2022/01/09 11:32:00;;;;;;;;;;;8.10;54.00;;;;;;5054675;28;19940;-70
2022/01/09 11:34:32;;;;;;;;;;;8.10;54.10;;;;;;5054852;28;19912;-71
2022/01/09 11:37:08;;;;;;;;;;;8.00;54.30;;;;;;5036974;28;19905;-71
2022/01/09 11:39:36;;;;;;;;;;;8.00;54.40;;;;;;5054941;28;19905;-71
2022/01/09 11:42:12;;;;;;;;;;;8.00;54.50;;;;;;5036755;28;19909;-71
2022/01/09 11:44:56;;;;;;;;;;;8.00;54.70;;;;;;5055008;28;19940;-72
2022/01/09 11:47:23;;;;;;;;;;;8.00;54.80;;;;;;5054785;28;19912;-72
2022/01/09 11:49:55;;;;;;;;;;;8.00;54.80;;;;;;5054710;28;19905;-72
2022/01/09 11:52:22;;;;;;;;;;;8.10;54.80;;;;;;5054305;28;19905;-72
2022/01/09 11:54:49;;;;;;;;;;;8.10;54.90;;;;;;5036650;28;19955;-71
2022/01/09 11:57:20;;;;;;;;;;;8.10;55.00;;;;;;5054556;28;19905;-72
2022/01/09 11:59:48;;;;;;;;;;;8.10;55.00;;;;;;5054827;28;20325;-73
2022/01/09 12:02:16;;;;;;;;;;;8.10;55.00;;;;;;5054228;28;20011;-72
2022/01/09 12:04:42;;;;;;;;;;;8.20;55.00;;;;;;5054358;28;19909;-73
2022/01/09 12:07:12;;;;;;;;;;;8.10;55.00;;;;;;5053961;28;19905;-72
2022/01/09 12:09:41;;;;;;;;;;;8.20;55.00;;;;;;5086247;28;20340;-72
2022/01/09 12:12:11;;;;;;;;;;;8.20;55.00;;;;;;5036216;28;19909;-72
2022/01/09 12:15:04;;;;;;;;;;;8.20;55.00;;;;;;5069393;28;19908;-72
2022/01/09 12:17:33;;;;;;;;;;;8.20;55.00;;;;;;5041239;28;19979;-72
2022/01/09 12:20:07;;;;;;;;;;;8.20;55.00;;;;;;5035927;28;19909;-72
2022/01/09 12:22:51;;;;;;;;;;;8.10;55.00;;;;;;5053644;28;19915;-72
2022/01/09 12:25:22;;;;;;;;;;;8.10;55.10;;;;;;5036127;28;19913;-72
2022/01/09 12:27:53;;;;;;;;;;;8.10;55.10;;;;;;5053938;28;19904;-72
2022/01/09 12:30:46;;;;;;;;;;;8.10;55.20;;;;;;5053975;28;19905;-72
2022/01/09 12:33:15;;;;;;;;;;;8.10;55.20;;;;;;5051682;28;19905;-72
2022/01/09 12:35:42;;;;;;;;;;;8.10;55.20;;;;;;5069600;28;19950;-72
2022/01/09 12:38:13;;;;;;;;;;;8.10;55.30;;;;;;5053527;28;19970;-73
2022/01/09 12:40:40;;;;;;;;;;;8.10;55.40;;;;;;5053753;28;19904;-73
2022/01/09 12:43:07;;;;;;;;;;;8.10;55.40;;;;;;5035795;28;19912;-73
2022/01/09 12:45:37;;;;;;;;;;;8.10;55.40;;;;;;5053761;28;19904;-73
2022/01/09 12:48:04;;;;;;;;;;;8.10;55.50;;;;;;5035899;28;19907;-72
2022/01/09 12:50:34;;;;;;;;;;;8.10;55.50;;;;;;5035724;28;19911;-72
2022/01/09 12:53:19;;;;;;;;;;;8.10;55.70;;;;;;5035760;28;19920;-73
2022/01/09 12:56:01;;;;;;;;;;;8.10;55.70;;;;;;5053603;28;19905;-73
2022/01/09 12:58:29;;;;;;;;;;;8.20;55.80;;;;;;5053618;28;19909;-72
2022/01/09 13:00:56;;;;;;;;;;;8.20;55.80;;;;;;5053085;28;20268;-72
2022/01/09 13:03:22;;;;;;;;;;;8.20;55.80;;;;;;5053584;28;19954;-72
2022/01/09 13:05:59;;;;;;;;;;;8.30;55.90;;;;;;5053511;28;19905;-72
2022/01/09 13:08:24;;;;;;;;;;;8.30;55.90;;;;;;5035789;28;19905;-72
2022/01/09 13:10:58;;;;;;;;;;;8.40;56.00;;;;;;5035709;28;20233;-72
2022/01/09 13:13:24;;;;;;;;;;;8.50;56.10;;;;;;5035610;28;20005;-72
2022/01/09 13:15:50;;;;;;;;;;;8.50;56.00;;;;;;5053178;28;19911;-72
2022/01/09 13:18:16;;;;;;;;;;;8.50;55.90;;;;;;5068810;28;19916;-73
2022/01/09 13:20:41;;;;;;;;;;;8.50;55.80;;;;;;5073101;28;19992;-72
2022/01/09 13:23:10;;;;;;;;;;;8.60;55.90;;;;;;5073102;28;19916;-72
2022/01/09 13:25:43;;;;;;;;;;;8.60;55.80;;;;;;5055493;28;20379;-72
2022/01/09 13:28:19;;;;;;;;;;;8.60;55.80;;;;;;5055339;28;20264;-72
2022/01/09 13:30:45;;;;;;;;;;;8.50;55.70;;;;;;5055161;28;19910;-73
2022/01/09 13:33:11;;;;;;;;;;;8.50;55.70;;;;;;5073671;28;19904;-71
2022/01/09 13:35:37;;;;;;;;;;;8.50;55.80;;;;;;5073285;28;20259;-72
2022/01/09 13:38:03;;;;;;;;;;;8.50;55.90;;;;;;5074793;28;19908;-71
2022/01/09 13:40:29;;;;;;;;;;;8.50;55.90;;;;;;5077144;28;20259;-72
2022/01/09 13:42:54;;;;;;;;;;;8.50;56.00;;;;;;5077099;28;20344;-72
2022/01/09 13:45:22;;;;;;;;;;;8.50;56.00;;;;;;5077026;28;20255;-72
2022/01/09 13:47:56;;;;;;;;;;;8.50;56.00;;;;;;5059039;28;19983;-72
2022/01/09 13:50:23;;;;;;;;;;;8.60;56.10;;;;;;5058927;28;19944;-72
2022/01/09 13:52:49;;;;;;;;;;;8.60;56.10;;;;;;5076911;28;20304;-72
2022/01/09 13:55:21;;;;;;;;;;;8.60;56.10;;;;;;5076654;28;19909;-72
2022/01/09 13:57:55;;;;;;;;;;;8.60;56.10;;;;;;5076501;28;20422;-72
2022/01/09 14:00:26;;;;;;;;;;;8.60;56.10;;;;;;5076792;28;19927;-73
2022/01/09 14:02:53;;;;;;;;;;;8.60;56.10;;;;;;5058560;28;19951;-71
2022/01/09 14:05:19;;;;;;;;;;;8.60;56.10;;;;;;5058699;28;19908;-72
2022/01/09 14:07:46;;;;;;;;;;;8.60;56.20;;;;;;5058773;28;19904;-73
2022/01/09 14:10:12;;;;;;;;;;;8.60;56.20;;;;;;5058624;28;19908;-72
2022/01/09 14:12:38;;;;;;;;;;;8.60;56.20;;;;;;5076182;28;19957;-71
2022/01/09 14:15:17;;;;;;;;;;;8.60;56.30;;;;;;5076543;28;20260;-72
2022/01/09 14:17:44;;;;;;;;;;;8.50;56.30;;;;;;5076791;28;19917;-72
2022/01/09 14:20:14;;;;;;;;;;;8.50;56.30;;;;;;5058112;28;20007;-72
2022/01/09 14:22:47;;;;;;;;;;;8.60;56.40;;;;;;5076499;28;19915;-71
2022/01/09 14:25:27;;;;;;;;;;;8.60;57.00;;;;;;5091854;28;19959;-72
2022/01/09 14:27:54;;;;;;;;;;;8.50;56.40;;;;;;5075953;28;19995;-72
2022/01/09 14:30:19;;;;;;;;;;;8.50;56.40;;;;;;5058211;28;19950;-71
2022/01/09 14:32:45;;;;;;;;;;;8.50;56.50;;;;;;5058151;28;20233;-73
2022/01/09 14:35:28;;;;;;;;;;;8.50;56.60;;;;;;5058186;28;19912;-72
2022/01/09 14:37:58;;;;;;;;;;;8.40;56.50;;;;;;5057547;28;20310;-72